Essex Fells, New Jersey
Current Conditions -  °F | °C
As of 6:53 AM on Monday 24 Nov 2014 (Local Time) from KCDW Reporting Station
Overcast Overcast  
Wind Chill: 63°   Ceiling: 1100
Heat Index: 63°   Visibility: 10mi
Dew Point: 59°   Wind: 14mph
Humidity: 87%   Direction: 200°SSW
Pressure: 29.68"   Gusts: 25mph
Location:  40.82°N, 74.28°W
Report Text: KCDW 241153Z AUTO 20012G22KT 170V240 10SM OVC011 17/15 A2968 RMK AO2 RAE52 SLP056 P0004 60061 70062 T01720150 10172 20067 56025 TSNO
Loading
Personal Weather Stations






























Interactive Weather Map New forecast layout! Learn more

10-Day Weather Forecast

Advertisements
Track Severe Weather on mobile